Time,TemperatureF,DewpointF,PressureIn,WindDirection,WindDirectionDegrees,WindSpeedMPH,WindSpeedGustMPH,Humidity,HourlyPrecipIn,Conditions,Clouds,dailyrainin,SolarRadiationWatts/m^2,SoftwareType,DateUTC
2013-09-02 00:01:00,69.9,69.0,29.75,WSW,250,0.0,0.0,98,0.00,,,0.02,0,weatherlink.com 1.10,2013-09-02 04:01:00,
2013-09-02 00:16:00,70.4,70.0,29.76,SSW,209,0.0,2.0,98,0.00,,,0.02,0,weatherlink.com 1.10,2013-09-02 04:16:00,
2013-09-02 00:31:00,70.6,70.0,29.77,WSW,240,3.0,5.0,97,0.00,,,0.02,0,weatherlink.com 1.10,2013-09-02 04:31:00,
2013-09-02 00:46:00,70.7,70.0,29.76,West,273,0.0,1.0,96,0.00,,,0.02,0,weatherlink.com 1.10,2013-09-02 04:46:00,
2013-09-02 01:01:00,70.4,69.0,29.77,West,273,0.0,2.0,96,0.00,,,0.00,0,weatherlink.com 1.10,2013-09-02 05:01:00,
2013-09-02 01:16:00,70.4,70.0,29.77,WSW,253,0.0,2.0,97,0.00,,,0.00,0,weatherlink.com 1.10,2013-09-02 05:16:00,
2013-09-02 01:31:00,70.5,69.0,29.76,WSW,253,0.0,1.0,96,0.00,,,0.00,0,weatherlink.com 1.10,2013-09-02 05:31:00,
2013-09-02 01:46:00,70.2,69.0,29.77,WSW,253,0.0,0.0,96,0.00,,,0.00,0,weatherlink.com 1.10,2013-09-02 05:46:00,
2013-09-02 02:01:00,69.7,69.0,29.77,WSW,253,0.0,0.0,96,0.00,,,0.00,0,weatherlink.com 1.10,2013-09-02 06:01:00,
2013-09-02 02:16:00,69.6,69.0,29.77,WSW,253,0.0,0.0,97,0.00,,,0.00,0,weatherlink.com 1.10,2013-09-02 06:16:00,
2013-09-02 02:31:00,69.4,69.0,29.76,WSW,253,0.0,0.0,97,0.00,,,0.00,0,weatherlink.com 1.10,2013-09-02 06:31:00,
2013-09-02 02:46:00,69.1,68.0,29.76,WSW,253,0.0,0.0,97,0.00,,,0.00,0,weatherlink.com 1.10,2013-09-02 06:46:00,
2013-09-02 03:01:00,68.6,68.0,29.76,WSW,253,0.0,0.0,97,0.00,,,0.00,0,weatherlink.com 1.10,2013-09-02 07:01:00,
2013-09-02 03:16:00,68.2,67.0,29.75,WSW,253,0.0,0.0,97,0.00,,,0.00,0,weatherlink.com 1.10,2013-09-02 07:16:00,
2013-09-02 03:31:00,68.1,68.0,29.75,WSW,253,0.0,0.0,98,0.00,,,0.00,0,weatherlink.com 1.10,2013-09-02 07:31:00,
2013-09-02 03:46:00,68.0,68.0,29.75,WSW,253,0.0,0.0,98,0.00,,,0.00,0,weatherlink.com 1.10,2013-09-02 07:46:00,
2013-09-02 04:01:00,67.8,67.0,29.75,WSW,253,0.0,0.0,98,0.00,,,0.00,0,weatherlink.com 1.10,2013-09-02 08:01:00,
2013-09-02 04:16:00,67.7,67.0,29.75,WSW,253,0.0,0.0,99,0.00,,,0.00,0,weatherlink.com 1.10,2013-09-02 08:16:00,
2013-09-02 04:31:00,67.6,67.0,29.74,WSW,253,0.0,0.0,98,0.00,,,0.00,0,weatherlink.com 1.10,2013-09-02 08:31:00,
2013-09-02 04:46:00,67.2,67.0,29.74,WSW,253,0.0,0.0,98,0.00,,,0.00,0,weatherlink.com 1.10,2013-09-02 08:46:00,
2013-09-02 05:01:00,67.3,67.0,29.75,WSW,253,0.0,0.0,99,0.00,,,0.00,0,weatherlink.com 1.10,2013-09-02 09:01:00,
2013-09-02 05:16:00,67.2,67.0,29.75,WSW,253,0.0,0.0,99,0.00,,,0.00,0,weatherlink.com 1.10,2013-09-02 09:16:00,
2013-09-02 05:31:00,67.2,67.0,29.75,WSW,253,0.0,0.0,99,0.00,,,0.00,0,weatherlink.com 1.10,2013-09-02 09:31:00,
2013-09-02 05:46:00,67.0,67.0,29.76,WSW,253,0.0,0.0,99,0.00,,,0.00,0,weatherlink.com 1.10,2013-09-02 09:46:00,
2013-09-02 06:01:00,67.0,67.0,29.76,WSW,253,0.0,0.0,99,0.00,,,0.00,0,weatherlink.com 1.10,2013-09-02 10:01:00,
2013-09-02 06:16:00,67.6,68.0,29.76,WSW,253,0.0,2.0,100,0.00,,,0.00,0,weatherlink.com 1.10,2013-09-02 10:16:00,
2013-09-02 06:31:00,68.3,68.0,29.76,WSW,253,0.0,0.0,100,0.00,,,0.00,0,weatherlink.com 1.10,2013-09-02 10:31:00,
2013-09-02 06:46:00,68.7,69.0,29.76,SW,233,0.0,3.0,100,0.00,,,0.00,0,weatherlink.com 1.10,2013-09-02 10:46:00,
2013-09-02 07:01:00,68.9,69.0,29.77,WSW,243,1.0,3.0,100,0.00,,,0.00,0,weatherlink.com 1.10,2013-09-02 11:01:00,
2013-09-02 07:16:00,69.1,69.0,29.78,WSW,243,1.0,2.0,100,0.00,,,0.00,0,weatherlink.com 1.10,2013-09-02 11:16:00,
2013-09-02 07:31:00,69.3,69.0,29.78,WSW,242,0.0,2.0,100,0.00,,,0.00,0,weatherlink.com 1.10,2013-09-02 11:31:00,
2013-09-02 07:46:00,69.4,69.0,29.78,WSW,242,0.0,2.0,100,0.00,,,0.00,9,weatherlink.com 1.10,2013-09-02 11:46:00,
2013-09-02 08:01:00,69.5,70.0,29.78,WSW,242,0.0,2.0,100,0.00,,,0.00,23,weatherlink.com 1.10,2013-09-02 12:01:00,
2013-09-02 08:16:00,69.5,70.0,29.79,WSW,242,0.0,2.0,100,0.00,,,0.00,51,weatherlink.com 1.10,2013-09-02 12:16:00,
2013-09-02 08:31:00,70.0,70.0,29.79,WSW,242,0.0,1.0,100,0.00,,,0.00,63,weatherlink.com 1.10,2013-09-02 12:31:00,
2013-09-02 08:46:00,70.1,70.0,29.79,WSW,246,1.0,3.0,99,0.00,,,0.00,56,weatherlink.com 1.10,2013-09-02 12:46:00,
2013-09-02 09:01:00,70.5,70.0,29.79,WSW,254,2.0,5.0,99,0.00,,,0.00,60,weatherlink.com 1.10,2013-09-02 13:01:00,
2013-09-02 09:16:00,71.5,71.0,29.80,WSW,252,3.0,4.0,98,0.00,,,0.00,148,weatherlink.com 1.10,2013-09-02 13:16:00,
2013-09-02 09:31:00,72.2,71.0,29.80,West,263,3.0,8.0,96,0.00,,,0.00,105,weatherlink.com 1.10,2013-09-02 13:31:00,
2013-09-02 09:47:00,72.5,71.0,29.80,West,265,5.0,5.0,95,0.00,,,0.00,91,weatherlink.com 1.10,2013-09-02 13:47:00,
2013-09-02 10:02:00,73.6,72.0,29.81,WSW,249,0.0,4.0,94,0.00,,,0.00,81,weatherlink.com 1.10,2013-09-02 14:02:00,
2013-09-02 10:17:00,74.2,72.0,29.81,SSW,193,2.0,5.0,91,0.00,,,0.00,86,weatherlink.com 1.10,2013-09-02 14:17:00,
2013-09-02 10:32:00,75.3,72.0,29.81,South,184,1.0,4.0,90,0.00,,,0.00,120,weatherlink.com 1.10,2013-09-02 14:32:00,
2013-09-02 10:47:00,76.3,72.0,29.82,SW,219,0.0,5.0,87,0.00,,,0.00,107,weatherlink.com 1.10,2013-09-02 14:47:00,
2013-09-02 11:02:00,77.3,73.0,29.82,SSW,194,3.0,6.0,85,0.00,,,0.00,116,weatherlink.com 1.10,2013-09-02 15:02:00,
2013-09-02 11:17:00,78.1,73.0,29.82,SW,232,7.0,7.0,83,0.00,,,0.00,360,weatherlink.com 1.10,2013-09-02 15:17:00,
2013-09-02 11:32:00,79.0,72.0,29.82,West,259,4.0,6.0,79,0.00,,,0.00,629,weatherlink.com 1.10,2013-09-02 15:32:00,
2013-09-02 11:47:00,79.8,73.0,29.82,SW,221,5.0,7.0,79,0.00,,,0.00,668,weatherlink.com 1.10,2013-09-02 15:47:00,
2013-09-02 12:02:00,80.4,73.0,29.81,South,181,0.0,7.0,79,0.00,,,0.00,700,weatherlink.com 1.10,2013-09-02 16:02:00,
2013-09-02 12:17:00,81.4,74.0,29.81,SSE,163,0.0,7.0,78,0.00,,,0.00,782,weatherlink.com 1.10,2013-09-02 16:17:00,
2013-09-02 12:32:00,82.4,74.0,29.81,WSW,246,1.0,8.0,76,0.00,,,0.00,817,weatherlink.com 1.10,2013-09-02 16:32:00,
2013-09-02 12:47:00,82.6,75.0,29.80,South,181,1.0,8.0,77,0.00,,,0.00,443,weatherlink.com 1.10,2013-09-02 16:47:00,
2013-09-02 13:02:00,83.2,73.0,29.80,WSW,254,7.0,10.0,72,0.00,,,0.00,831,weatherlink.com 1.10,2013-09-02 17:02:00,
2013-09-02 13:17:00,83.1,73.0,29.80,WSW,245,6.0,10.0,72,0.00,,,0.00,884,weatherlink.com 1.10,2013-09-02 17:17:00,
2013-09-02 13:32:00,84.5,74.0,29.79,SW,223,7.0,8.0,71,0.00,,,0.00,459,weatherlink.com 1.10,2013-09-02 17:32:00,
2013-09-02 13:47:00,84.2,74.0,29.79,SW,236,4.0,7.0,72,0.00,,,0.00,995,weatherlink.com 1.10,2013-09-02 17:47:00,
2013-09-02 14:02:00,83.6,74.0,29.78,WSW,242,3.0,10.0,73,0.00,,,0.00,925,weatherlink.com 1.10,2013-09-02 18:02:00,
2013-09-02 14:17:00,83.9,74.0,29.78,SSW,208,0.0,7.0,73,0.00,,,0.00,269,weatherlink.com 1.10,2013-09-02 18:17:00,
2013-09-02 14:32:00,85.1,74.0,29.77,West,273,7.0,9.0,70,0.00,,,0.00,765,weatherlink.com 1.10,2013-09-02 18:32:00,
2013-09-02 14:47:00,85.0,75.0,29.77,West,267,5.0,6.0,73,0.00,,,0.00,596,weatherlink.com 1.10,2013-09-02 18:47:00,
2013-09-02 15:02:00,84.7,74.0,29.77,SW,223,2.0,11.0,70,0.00,,,0.00,452,weatherlink.com 1.10,2013-09-02 19:02:00,
2013-09-02 15:17:00,84.9,75.0,29.76,SW,223,3.0,8.0,71,0.00,,,0.00,436,weatherlink.com 1.10,2013-09-02 19:17:00,
2013-09-02 15:32:00,85.4,77.0,29.76,West,264,2.0,8.0,75,0.00,,,0.00,830,weatherlink.com 1.10,2013-09-02 19:32:00,
2013-09-02 15:47:00,85.6,76.0,29.75,SSW,201,3.0,9.0,73,0.00,,,0.00,202,weatherlink.com 1.10,2013-09-02 19:47:00,
2013-09-02 16:02:00,85.3,75.0,29.74,SSW,211,3.0,6.0,72,0.00,,,0.00,835,weatherlink.com 1.10,2013-09-02 20:02:00,
2013-09-02 16:18:00,86.3,74.0,29.73,SW,236,4.0,10.0,67,0.00,,,0.00,728,weatherlink.com 1.10,2013-09-02 20:18:00,
2013-09-02 16:33:00,86.0,76.0,29.73,SW,223,1.0,7.0,71,0.00,,,0.00,680,weatherlink.com 1.10,2013-09-02 20:33:00,
2013-09-02 16:48:00,86.6,77.0,29.73,SSE,153,0.0,7.0,73,0.00,,,0.00,492,weatherlink.com 1.10,2013-09-02 20:48:00,
2013-09-02 17:03:00,85.0,76.0,29.72,SW,227,1.0,8.0,74,0.00,,,0.00,394,weatherlink.com 1.10,2013-09-02 21:03:00,
2013-09-02 17:18:00,82.3,75.0,29.73,SSW,202,1.0,6.0,78,0.00,,,0.00,65,weatherlink.com 1.10,2013-09-02 21:18:00,
2013-09-02 17:33:00,80.8,75.0,29.73,West,277,4.0,6.0,82,0.00,,,0.00,105,weatherlink.com 1.10,2013-09-02 21:33:00,
2013-09-02 17:48:00,80.3,75.0,29.72,SW,226,0.0,5.0,84,0.00,,,0.00,538,weatherlink.com 1.10,2013-09-02 21:48:00,
2013-09-02 18:03:00,82.8,75.0,29.71,WSW,241,7.0,8.0,76,0.00,,,0.00,394,weatherlink.com 1.10,2013-09-02 22:03:00,
2013-09-02 18:18:00,82.9,75.0,29.70,WNW,292,4.0,7.0,78,0.00,,,0.00,292,weatherlink.com 1.10,2013-09-02 22:18:00,
2013-09-02 18:33:00,81.6,74.0,29.71,WSW,254,6.0,12.0,78,0.00,,,0.00,209,weatherlink.com 1.10,2013-09-02 22:33:00,
2013-09-02 18:48:00,79.9,74.0,29.72,SSW,213,1.0,7.0,81,0.00,,,0.00,90,weatherlink.com 1.10,2013-09-02 22:48:00,
2013-09-02 19:03:00,78.4,74.0,29.73,WSW,246,0.0,6.0,85,0.00,,,0.00,28,weatherlink.com 1.10,2013-09-02 23:03:00,
2013-09-02 19:18:00,77.8,74.0,29.73,West,279,0.0,4.0,88,0.00,,,0.00,40,weatherlink.com 1.10,2013-09-02 23:18:00,
2013-09-02 19:33:00,77.5,74.0,29.73,SSW,209,3.0,4.0,90,0.00,,,0.00,21,weatherlink.com 1.10,2013-09-02 23:33:00,
2013-09-02 19:48:00,77.2,74.0,29.74,West,267,3.0,5.0,90,0.00,,,0.00,0,weatherlink.com 1.10,2013-09-02 23:48:00,
2013-09-02 20:03:00,77.2,75.0,29.75,WSW,254,2.0,5.0,91,0.00,,,0.00,0,weatherlink.com 1.10,2013-09-03 00:03:00,
2013-09-02 20:18:00,76.4,74.0,29.74,West,266,0.0,5.0,93,0.00,,,0.00,0,weatherlink.com 1.10,2013-09-03 00:18:00,
2013-09-02 20:33:00,75.4,74.0,29.73,WSW,241,1.0,5.0,94,0.00,,,0.00,0,weatherlink.com 1.10,2013-09-03 00:33:00,
2013-09-02 20:48:00,74.8,73.0,29.73,SSW,192,0.0,3.0,95,0.00,,,0.00,0,weatherlink.com 1.10,2013-09-03 00:48:00,
2013-09-02 21:03:00,74.5,73.0,29.73,SW,226,1.0,4.0,96,0.00,,,0.00,0,weatherlink.com 1.10,2013-09-03 01:03:00,
2013-09-02 21:18:00,74.5,74.0,29.73,SW,236,0.0,2.0,97,0.00,,,0.00,0,weatherlink.com 1.10,2013-09-03 01:18:00,
2013-09-02 21:33:00,74.0,73.0,29.75,NNW,338,0.0,7.0,95,0.00,,,0.00,0,weatherlink.com 1.10,2013-09-03 01:33:00,
2013-09-02 21:49:00,73.6,72.0,29.76,NW,318,1.0,3.0,95,0.00,,,0.00,0,weatherlink.com 1.10,2013-09-03 01:49:00,
2013-09-02 22:03:00,73.6,72.0,29.75,NW,318,0.0,0.0,95,0.00,,,0.00,0,weatherlink.com 1.10,2013-09-03 02:03:00,
2013-09-02 22:18:00,73.5,72.0,29.75,NW,318,0.0,0.0,95,0.00,,,0.00,0,weatherlink.com 1.10,2013-09-03 02:18:00,
2013-09-02 22:33:00,73.3,72.0,29.75,NW,318,0.0,0.0,96,0.00,,,0.00,0,weatherlink.com 1.10,2013-09-03 02:33:00,
2013-09-02 22:48:00,72.9,72.0,29.76,NW,318,0.0,0.0,96,0.00,,,0.00,0,weatherlink.com 1.10,2013-09-03 02:48:00,
2013-09-02 23:03:00,72.4,72.0,29.76,NW,318,0.0,0.0,97,0.00,,,0.00,0,weatherlink.com 1.10,2013-09-03 03:03:00,
2013-09-02 23:18:00,72.4,72.0,29.77,NW,318,0.0,0.0,98,0.00,,,0.00,0,weatherlink.com 1.10,2013-09-03 03:18:00,
2013-09-02 23:33:00,72.2,72.0,29.77,NW,318,0.0,0.0,98,0.00,,,0.00,0,weatherlink.com 1.10,2013-09-03 03:33:00,